Stowell, Texas
Current Conditions -  °F | °C
As of 8:55 PM on Tuesday 21 Oct 2014 (Local Time) from KBMT Reporting Station
Clear Clear  
Wind Chill: 64°   Ceiling: Unl
Heat Index: 64°   Visibility: 10mi
Dew Point: 61°   Wind: 0mph
Humidity: 90%   Direction: NA
Pressure: 30.03"   Gusts: NA
Location:  29.79°N, 94.38°W
Report Text: KBMT 220155Z AUTO 00000KT 10SM CLR 18/16 A3003 RMK AO2 T01790163
Loading
Personal Weather Stations






























Interactive Weather Map
Tropical Storm Tracking
New forecast layout! Learn more

10-Day Weather Forecast

Advertisements
Track Severe Weather on mobile